Jose Maria Blanco, Argentina
Current Conditions -  °F | °C
As of 5:00 AM on Saturday 29 Nov 2014 (Local Time) from SAOC Reporting Station
Scattered Clouds Scattered Clouds  
Wind Chill: 70°   Ceiling: Unl
Heat Index: 70°   Visibility: 6mi
Dew Point: 57°   Wind: 18mph
Humidity: 64%   Direction: 360°N
Pressure: 29.59"   Gusts: NA
Location:  36.45°S, 62.86°W
Report Text: SAOC 290800Z 36016KT 9999 FEW020 SCT10021/14 Q1002
Loading
Personal Weather Stations






























Interactive Weather Map New forecast layout! Learn more

10-Day Weather Forecast

Advertisements
Track Severe Weather on mobile